sensor_id;sensor_type;location;lat;lon;timestamp;P1;durP1;ratioP1;P2;durP2;ratioP2
4200;SDS011;2114;50.398;8.814;2022-07-29T00:01:56;6.80;;;2.13;;
4200;SDS011;2114;50.398;8.814;2022-07-29T00:06:56;6.03;;;1.30;;
4200;SDS011;2114;50.398;8.814;2022-07-29T00:11:58;2.60;;;1.60;;
4200;SDS011;2114;50.398;8.814;2022-07-29T00:17:00;2.90;;;1.83;;
4200;SDS011;2114;50.398;8.814;2022-07-29T00:22:00;6.40;;;1.90;;
4200;SDS011;2114;50.398;8.814;2022-07-29T00:27:01;1.97;;;1.87;;
4200;SDS011;2114;50.398;8.814;2022-07-29T00:32:02;8.90;;;2.93;;
4200;SDS011;2114;50.398;8.814;2022-07-29T00:37:02;3.20;;;1.77;;
4200;SDS011;2114;50.398;8.814;2022-07-29T00:42:04;4.73;;;1.60;;
4200;SDS011;2114;50.398;8.814;2022-07-29T00:47:06;2.77;;;2.10;;
4200;SDS011;2114;50.398;8.814;2022-07-29T00:52:07;6.93;;;1.80;;
4200;SDS011;2114;50.398;8.814;2022-07-29T00:57:09;16.33;;;2.97;;
4200;SDS011;2114;50.398;8.814;2022-07-29T01:02:10;5.57;;;1.83;;
4200;SDS011;2114;50.398;8.814;2022-07-29T01:07:10;6.43;;;1.77;;
4200;SDS011;2114;50.398;8.814;2022-07-29T01:12:15;8.30;;;2.37;;
4200;SDS011;2114;50.398;8.814;2022-07-29T01:17:26;2.70;;;1.80;;
4200;SDS011;2114;50.398;8.814;2022-07-29T01:28:01;11.47;;;2.70;;
4200;SDS011;2114;50.398;8.814;2022-07-29T01:33:11;6.40;;;2.40;;
4200;SDS011;2114;50.398;8.814;2022-07-29T01:38:35;6.00;;;2.40;;
4200;SDS011;2114;50.398;8.814;2022-07-29T01:43:44;8.10;;;2.27;;
4200;SDS011;2114;50.398;8.814;2022-07-29T01:48:55;3.60;;;2.50;;
4200;SDS011;2114;50.398;8.814;2022-07-29T01:59:14;6.57;;;2.90;;
4200;SDS011;2114;50.398;8.814;2022-07-29T02:04:17;6.17;;;2.50;;
4200;SDS011;2114;50.398;8.814;2022-07-29T02:09:20;3.97;;;2.17;;
4200;SDS011;2114;50.398;8.814;2022-07-29T02:14:22;3.20;;;2.40;;
4200;SDS011;2114;50.398;8.814;2022-07-29T02:19:23;6.90;;;2.77;;
4200;SDS011;2114;50.398;8.814;2022-07-29T02:24:26;3.10;;;1.70;;
4200;SDS011;2114;50.398;8.814;2022-07-29T02:29:28;3.93;;;1.90;;
4200;SDS011;2114;50.398;8.814;2022-07-29T02:34:31;6.77;;;2.00;;
4200;SDS011;2114;50.398;8.814;2022-07-29T02:39:34;11.50;;;2.80;;
4200;SDS011;2114;50.398;8.814;2022-07-29T02:44:35;7.47;;;1.57;;
4200;SDS011;2114;50.398;8.814;2022-07-29T02:49:47;2.50;;;1.90;;
4200;SDS011;2114;50.398;8.814;2022-07-29T02:55:01;4.00;;;2.50;;
4200;SDS011;2114;50.398;8.814;2022-07-29T03:00:14;4.43;;;3.20;;
4200;SDS011;2114;50.398;8.814;2022-07-29T03:05:17;5.93;;;2.80;;
4200;SDS011;2114;50.398;8.814;2022-07-29T03:10:20;3.13;;;2.40;;
4200;SDS011;2114;50.398;8.814;2022-07-29T03:15:21;4.43;;;2.43;;
4200;SDS011;2114;50.398;8.814;2022-07-29T03:20:23;5.30;;;2.93;;
4200;SDS011;2114;50.398;8.814;2022-07-29T03:25:23;3.57;;;2.50;;
4200;SDS011;2114;50.398;8.814;2022-07-29T03:30:24;4.70;;;3.30;;
4200;SDS011;2114;50.398;8.814;2022-07-29T03:35:25;4.30;;;2.67;;
4200;SDS011;2114;50.398;8.814;2022-07-29T03:40:27;3.10;;;2.33;;
4200;SDS011;2114;50.398;8.814;2022-07-29T03:45:41;4.30;;;2.30;;
4200;SDS011;2114;50.398;8.814;2022-07-29T03:50:45;5.83;;;2.17;;
4200;SDS011;2114;50.398;8.814;2022-07-29T03:55:48;6.93;;;2.30;;
4200;SDS011;2114;50.398;8.814;2022-07-29T04:00:53;4.00;;;2.07;;
4200;SDS011;2114;50.398;8.814;2022-07-29T04:05:59;5.90;;;2.53;;
4200;SDS011;2114;50.398;8.814;2022-07-29T04:11:01;5.47;;;1.83;;
4200;SDS011;2114;50.398;8.814;2022-07-29T04:16:03;4.93;;;2.27;;
4200;SDS011;2114;50.398;8.814;2022-07-29T04:21:04;2.90;;;2.10;;
4200;SDS011;2114;50.398;8.814;2022-07-29T04:26:05;6.83;;;2.50;;
4200;SDS011;2114;50.398;8.814;2022-07-29T04:31:05;4.87;;;2.80;;
4200;SDS011;2114;50.398;8.814;2022-07-29T04:36:06;4.33;;;2.50;;
4200;SDS011;2114;50.398;8.814;2022-07-29T04:41:07;5.00;;;2.60;;
4200;SDS011;2114;50.398;8.814;2022-07-29T04:46:08;9.73;;;4.47;;
4200;SDS011;2114;50.398;8.814;2022-07-29T04:51:09;10.73;;;3.27;;
4200;SDS011;2114;50.398;8.814;2022-07-29T04:56:09;4.60;;;2.40;;
4200;SDS011;2114;50.398;8.814;2022-07-29T05:01:10;5.70;;;2.93;;
4200;SDS011;2114;50.398;8.814;2022-07-29T05:06:10;6.80;;;3.10;;
4200;SDS011;2114;50.398;8.814;2022-07-29T05:11:11;6.00;;;2.90;;
4200;SDS011;2114;50.398;8.814;2022-07-29T05:16:12;11.47;;;2.70;;
4200;SDS011;2114;50.398;8.814;2022-07-29T05:21:13;9.47;;;3.60;;
4200;SDS011;2114;50.398;8.814;2022-07-29T05:26:13;4.00;;;2.53;;
4200;SDS011;2114;50.398;8.814;2022-07-29T05:31:14;2.40;;;2.20;;
4200;SDS011;2114;50.398;8.814;2022-07-29T05:36:15;4.00;;;2.67;;
4200;SDS011;2114;50.398;8.814;2022-07-29T05:41:15;7.57;;;3.77;;
4200;SDS011;2114;50.398;8.814;2022-07-29T05:46:16;12.23;;;2.63;;
4200;SDS011;2114;50.398;8.814;2022-07-29T05:51:17;6.60;;;3.47;;
4200;SDS011;2114;50.398;8.814;2022-07-29T05:56:17;3.37;;;2.50;;
4200;SDS011;2114;50.398;8.814;2022-07-29T06:01:18;5.17;;;2.80;;
4200;SDS011;2114;50.398;8.814;2022-07-29T06:06:18;11.43;;;3.17;;
4200;SDS011;2114;50.398;8.814;2022-07-29T06:11:19;8.13;;;3.00;;
4200;SDS011;2114;50.398;8.814;2022-07-29T06:16:19;7.20;;;2.87;;
4200;SDS011;2114;50.398;8.814;2022-07-29T06:21:20;2.67;;;2.43;;
4200;SDS011;2114;50.398;8.814;2022-07-29T06:26:21;5.60;;;3.03;;
4200;SDS011;2114;50.398;8.814;2022-07-29T06:31:21;4.90;;;2.67;;
4200;SDS011;2114;50.398;8.814;2022-07-29T06:36:22;15.00;;;2.63;;
4200;SDS011;2114;50.398;8.814;2022-07-29T06:41:22;5.20;;;3.20;;
4200;SDS011;2114;50.398;8.814;2022-07-29T06:46:23;12.83;;;2.73;;
4200;SDS011;2114;50.398;8.814;2022-07-29T06:51:24;5.50;;;2.30;;
4200;SDS011;2114;50.398;8.814;2022-07-29T06:56:25;8.70;;;2.80;;
4200;SDS011;2114;50.398;8.814;2022-07-29T07:01:25;5.50;;;2.17;;
4200;SDS011;2114;50.398;8.814;2022-07-29T07:06:26;5.70;;;2.63;;
4200;SDS011;2114;50.398;8.814;2022-07-29T07:11:27;3.33;;;2.10;;
4200;SDS011;2114;50.398;8.814;2022-07-29T07:16:28;5.40;;;2.40;;
4200;SDS011;2114;50.398;8.814;2022-07-29T07:21:29;3.70;;;3.10;;
4200;SDS011;2114;50.398;8.814;2022-07-29T07:26:29;5.80;;;2.50;;
4200;SDS011;2114;50.398;8.814;2022-07-29T07:31:30;9.10;;;3.07;;
4200;SDS011;2114;50.398;8.814;2022-07-29T07:36:31;3.90;;;2.50;;
4200;SDS011;2114;50.398;8.814;2022-07-29T07:41:31;4.27;;;2.00;;
4200;SDS011;2114;50.398;8.814;2022-07-29T07:46:32;4.50;;;2.43;;
4200;SDS011;2114;50.398;8.814;2022-07-29T07:51:32;3.90;;;2.00;;
4200;SDS011;2114;50.398;8.814;2022-07-29T07:56:33;6.30;;;2.50;;
4200;SDS011;2114;50.398;8.814;2022-07-29T08:01:34;4.00;;;2.00;;
4200;SDS011;2114;50.398;8.814;2022-07-29T08:06:34;6.80;;;2.53;;
4200;SDS011;2114;50.398;8.814;2022-07-29T08:11:36;4.93;;;2.83;;
4200;SDS011;2114;50.398;8.814;2022-07-29T08:16:37;3.27;;;2.63;;
4200;SDS011;2114;50.398;8.814;2022-07-29T08:21:38;2.80;;;2.23;;
4200;SDS011;2114;50.398;8.814;2022-07-29T08:26:39;12.50;;;2.67;;
4200;SDS011;2114;50.398;8.814;2022-07-29T08:31:41;7.80;;;2.30;;
4200;SDS011;2114;50.398;8.814;2022-07-29T08:36:42;1.77;;;1.67;;
4200;SDS011;2114;50.398;8.814;2022-07-29T08:41:42;5.60;;;2.50;;
4200;SDS011;2114;50.398;8.814;2022-07-29T08:46:43;4.70;;;1.90;;
4200;SDS011;2114;50.398;8.814;2022-07-29T08:51:44;7.13;;;2.00;;
4200;SDS011;2114;50.398;8.814;2022-07-29T08:56:48;5.20;;;2.33;;
4200;SDS011;2114;50.398;8.814;2022-07-29T09:01:50;8.07;;;2.30;;
4200;SDS011;2114;50.398;8.814;2022-07-29T09:06:53;2.13;;;1.60;;
4200;SDS011;2114;50.398;8.814;2022-07-29T09:11:57;2.00;;;1.80;;
4200;SDS011;2114;50.398;8.814;2022-07-29T09:16:59;3.60;;;2.00;;
4200;SDS011;2114;50.398;8.814;2022-07-29T09:22:01;6.40;;;2.20;;
4200;SDS011;2114;50.398;8.814;2022-07-29T09:27:07;4.47;;;2.10;;
4200;SDS011;2114;50.398;8.814;2022-07-29T09:32:29;5.63;;;2.10;;
4200;SDS011;2114;50.398;8.814;2022-07-29T09:37:29;5.17;;;1.90;;
4200;SDS011;2114;50.398;8.814;2022-07-29T09:42:30;5.43;;;2.13;;
4200;SDS011;2114;50.398;8.814;2022-07-29T09:47:40;6.97;;;2.47;;
4200;SDS011;2114;50.398;8.814;2022-07-29T09:52:48;2.00;;;1.70;;
4200;SDS011;2114;50.398;8.814;2022-07-29T09:57:49;8.97;;;1.70;;
4200;SDS011;2114;50.398;8.814;2022-07-29T10:02:50;4.43;;;2.20;;
4200;SDS011;2114;50.398;8.814;2022-07-29T10:07:52;5.67;;;1.83;;
4200;SDS011;2114;50.398;8.814;2022-07-29T10:12:59;9.60;;;2.00;;
4200;SDS011;2114;50.398;8.814;2022-07-29T10:18:02;2.97;;;1.73;;
4200;SDS011;2114;50.398;8.814;2022-07-29T10:23:03;4.83;;;2.00;;
4200;SDS011;2114;50.398;8.814;2022-07-29T10:28:05;1.90;;;1.73;;
4200;SDS011;2114;50.398;8.814;2022-07-29T10:33:08;4.50;;;1.50;;
4200;SDS011;2114;50.398;8.814;2022-07-29T10:38:26;2.13;;;1.60;;
4200;SDS011;2114;50.398;8.814;2022-07-29T10:44:04;3.27;;;1.90;;
4200;SDS011;2114;50.398;8.814;2022-07-29T10:49:14;8.70;;;1.93;;
4200;SDS011;2114;50.398;8.814;2022-07-29T10:54:17;1.83;;;1.53;;
4200;SDS011;2114;50.398;8.814;2022-07-29T10:59:48;1.73;;;1.63;;
4200;SDS011;2114;50.398;8.814;2022-07-29T11:15:16;6.33;;;1.70;;
4200;SDS011;2114;50.398;8.814;2022-07-29T11:25:43;3.50;;;1.73;;
4200;SDS011;2114;50.398;8.814;2022-07-29T11:30:47;1.73;;;1.63;;
4200;SDS011;2114;50.398;8.814;2022-07-29T11:36:10;6.00;;;1.90;;
4200;SDS011;2114;50.398;8.814;2022-07-29T11:41:23;2.67;;;1.63;;
4200;SDS011;2114;50.398;8.814;2022-07-29T11:52:03;1.90;;;1.40;;
4200;SDS011;2114;50.398;8.814;2022-07-29T11:57:06;1.87;;;1.63;;
4200;SDS011;2114;50.398;8.814;2022-07-29T12:02:07;3.60;;;3.30;;
4200;SDS011;2114;50.398;8.814;2022-07-29T12:07:08;3.17;;;1.80;;
4200;SDS011;2114;50.398;8.814;2022-07-29T12:12:08;1.93;;;1.60;;
4200;SDS011;2114;50.398;8.814;2022-07-29T12:17:21;3.90;;;2.07;;
4200;SDS011;2114;50.398;8.814;2022-07-29T12:27:31;2.03;;;1.37;;
4200;SDS011;2114;50.398;8.814;2022-07-29T12:32:43;3.00;;;1.60;;
4200;SDS011;2114;50.398;8.814;2022-07-29T12:37:47;4.47;;;1.40;;
4200;SDS011;2114;50.398;8.814;2022-07-29T12:43:07;2.57;;;1.73;;
4200;SDS011;2114;50.398;8.814;2022-07-29T12:48:11;3.70;;;1.37;;
4200;SDS011;2114;50.398;8.814;2022-07-29T12:53:13;5.10;;;1.57;;
4200;SDS011;2114;50.398;8.814;2022-07-29T12:58:26;1.50;;;1.40;;
4200;SDS011;2114;50.398;8.814;2022-07-29T13:03:28;1.50;;;1.40;;
4200;SDS011;2114;50.398;8.814;2022-07-29T13:08:29;3.13;;;1.63;;
4200;SDS011;2114;50.398;8.814;2022-07-29T13:13:29;4.17;;;1.73;;
4200;SDS011;2114;50.398;8.814;2022-07-29T13:18:31;2.67;;;1.30;;
4200;SDS011;2114;50.398;8.814;2022-07-29T13:23:33;2.00;;;1.60;;
4200;SDS011;2114;50.398;8.814;2022-07-29T13:28:35;3.97;;;1.40;;
4200;SDS011;2114;50.398;8.814;2022-07-29T13:33:35;2.80;;;1.50;;
4200;SDS011;2114;50.398;8.814;2022-07-29T13:38:36;2.40;;;1.57;;
4200;SDS011;2114;50.398;8.814;2022-07-29T13:43:36;1.50;;;1.40;;
4200;SDS011;2114;50.398;8.814;2022-07-29T13:48:37;2.97;;;1.50;;
4200;SDS011;2114;50.398;8.814;2022-07-29T13:53:38;2.70;;;1.33;;
4200;SDS011;2114;50.398;8.814;2022-07-29T13:58:38;2.10;;;1.40;;
4200;SDS011;2114;50.398;8.814;2022-07-29T14:03:39;1.60;;;1.50;;
4200;SDS011;2114;50.398;8.814;2022-07-29T14:08:41;1.30;;;1.20;;
4200;SDS011;2114;50.398;8.814;2022-07-29T14:13:42;6.07;;;1.60;;
4200;SDS011;2114;50.398;8.814;2022-07-29T14:18:43;1.53;;;1.43;;
4200;SDS011;2114;50.398;8.814;2022-07-29T14:23:43;4.80;;;1.50;;
4200;SDS011;2114;50.398;8.814;2022-07-29T14:28:44;6.60;;;1.70;;
4200;SDS011;2114;50.398;8.814;2022-07-29T14:33:45;2.87;;;1.33;;
4200;SDS011;2114;50.398;8.814;2022-07-29T14:38:45;11.93;;;1.77;;
4200;SDS011;2114;50.398;8.814;2022-07-29T14:43:46;8.67;;;2.10;;
4200;SDS011;2114;50.398;8.814;2022-07-29T14:48:47;4.00;;;3.50;;
4200;SDS011;2114;50.398;8.814;2022-07-29T14:53:47;5.30;;;3.10;;
4200;SDS011;2114;50.398;8.814;2022-07-29T14:58:48;2.87;;;2.47;;
4200;SDS011;2114;50.398;8.814;2022-07-29T15:03:48;1.80;;;1.70;;
4200;SDS011;2114;50.398;8.814;2022-07-29T15:08:50;2.93;;;1.90;;
4200;SDS011;2114;50.398;8.814;2022-07-29T15:13:50;1.80;;;1.70;;
4200;SDS011;2114;50.398;8.814;2022-07-29T15:18:51;4.10;;;2.63;;
4200;SDS011;2114;50.398;8.814;2022-07-29T15:23:52;8.37;;;4.50;;
4200;SDS011;2114;50.398;8.814;2022-07-29T15:28:53;5.27;;;2.43;;
4200;SDS011;2114;50.398;8.814;2022-07-29T15:33:55;4.63;;;2.67;;
4200;SDS011;2114;50.398;8.814;2022-07-29T15:38:56;5.43;;;2.83;;
4200;SDS011;2114;50.398;8.814;2022-07-29T15:43:57;3.27;;;2.97;;
4200;SDS011;2114;50.398;8.814;2022-07-29T15:48:58;3.37;;;2.87;;
4200;SDS011;2114;50.398;8.814;2022-07-29T15:54:00;3.00;;;2.37;;
4200;SDS011;2114;50.398;8.814;2022-07-29T15:59:02;4.60;;;2.87;;
4200;SDS011;2114;50.398;8.814;2022-07-29T16:04:02;4.20;;;2.97;;
4200;SDS011;2114;50.398;8.814;2022-07-29T16:09:03;4.47;;;2.73;;
4200;SDS011;2114;50.398;8.814;2022-07-29T16:14:04;3.87;;;2.90;;
4200;SDS011;2114;50.398;8.814;2022-07-29T16:19:05;5.70;;;3.50;;
4200;SDS011;2114;50.398;8.814;2022-07-29T16:24:08;4.80;;;3.60;;
4200;SDS011;2114;50.398;8.814;2022-07-29T16:29:08;20.73;;;4.20;;
4200;SDS011;2114;50.398;8.814;2022-07-29T16:34:09;4.00;;;2.73;;
4200;SDS011;2114;50.398;8.814;2022-07-29T16:39:10;4.60;;;2.73;;
4200;SDS011;2114;50.398;8.814;2022-07-29T16:44:11;5.00;;;2.80;;
4200;SDS011;2114;50.398;8.814;2022-07-29T16:49:12;4.03;;;2.27;;
4200;SDS011;2114;50.398;8.814;2022-07-29T16:54:12;7.43;;;2.90;;
4200;SDS011;2114;50.398;8.814;2022-07-29T16:59:13;3.73;;;2.80;;
4200;SDS011;2114;50.398;8.814;2022-07-29T17:04:14;4.73;;;2.70;;
4200;SDS011;2114;50.398;8.814;2022-07-29T17:09:14;4.03;;;2.97;;
4200;SDS011;2114;50.398;8.814;2022-07-29T17:14:15;4.20;;;2.53;;
4200;SDS011;2114;50.398;8.814;2022-07-29T17:19:16;3.23;;;2.60;;
4200;SDS011;2114;50.398;8.814;2022-07-29T17:24:16;4.30;;;2.83;;
4200;SDS011;2114;50.398;8.814;2022-07-29T17:29:17;3.87;;;2.90;;
4200;SDS011;2114;50.398;8.814;2022-07-29T17:34:18;8.40;;;2.70;;
4200;SDS011;2114;50.398;8.814;2022-07-29T17:39:18;12.83;;;4.67;;
4200;SDS011;2114;50.398;8.814;2022-07-29T17:44:19;7.13;;;2.47;;
4200;SDS011;2114;50.398;8.814;2022-07-29T17:49:19;8.17;;;7.00;;
4200;SDS011;2114;50.398;8.814;2022-07-29T17:54:20;7.60;;;3.50;;
4200;SDS011;2114;50.398;8.814;2022-07-29T17:59:21;6.07;;;3.00;;
4200;SDS011;2114;50.398;8.814;2022-07-29T18:04:21;5.83;;;2.97;;
4200;SDS011;2114;50.398;8.814;2022-07-29T18:09:22;3.07;;;2.57;;
4200;SDS011;2114;50.398;8.814;2022-07-29T18:14:23;3.97;;;2.60;;
4200;SDS011;2114;50.398;8.814;2022-07-29T18:19:23;3.00;;;2.73;;
4200;SDS011;2114;50.398;8.814;2022-07-29T18:24:24;3.80;;;2.60;;
4200;SDS011;2114;50.398;8.814;2022-07-29T18:29:26;19.13;;;4.03;;
4200;SDS011;2114;50.398;8.814;2022-07-29T18:34:27;6.20;;;2.73;;
4200;SDS011;2114;50.398;8.814;2022-07-29T18:39:28;6.20;;;3.53;;
4200;SDS011;2114;50.398;8.814;2022-07-29T18:44:29;3.20;;;2.90;;
4200;SDS011;2114;50.398;8.814;2022-07-29T18:49:29;4.20;;;3.80;;
4200;SDS011;2114;50.398;8.814;2022-07-29T18:54:29;4.73;;;3.60;;
4200;SDS011;2114;50.398;8.814;2022-07-29T18:59:30;11.13;;;3.83;;
4200;SDS011;2114;50.398;8.814;2022-07-29T19:04:33;3.87;;;3.47;;
4200;SDS011;2114;50.398;8.814;2022-07-29T19:09:33;4.40;;;3.50;;
4200;SDS011;2114;50.398;8.814;2022-07-29T19:14:36;5.00;;;3.60;;
4200;SDS011;2114;50.398;8.814;2022-07-29T19:19:36;9.33;;;5.17;;
4200;SDS011;2114;50.398;8.814;2022-07-29T19:24:37;6.40;;;4.07;;
4200;SDS011;2114;50.398;8.814;2022-07-29T19:29:38;5.50;;;3.57;;
4200;SDS011;2114;50.398;8.814;2022-07-29T19:34:38;5.23;;;3.50;;
4200;SDS011;2114;50.398;8.814;2022-07-29T19:39:40;16.17;;;3.93;;
4200;SDS011;2114;50.398;8.814;2022-07-29T19:44:40;5.73;;;4.20;;
4200;SDS011;2114;50.398;8.814;2022-07-29T19:49:41;7.13;;;3.10;;
4200;SDS011;2114;50.398;8.814;2022-07-29T19:54:41;4.00;;;3.40;;
4200;SDS011;2114;50.398;8.814;2022-07-29T19:59:42;3.20;;;2.90;;
4200;SDS011;2114;50.398;8.814;2022-07-29T20:04:42;3.60;;;3.27;;
4200;SDS011;2114;50.398;8.814;2022-07-29T20:09:43;3.17;;;2.87;;
4200;SDS011;2114;50.398;8.814;2022-07-29T20:14:44;2.53;;;2.00;;
4200;SDS011;2114;50.398;8.814;2022-07-29T20:19:45;3.30;;;2.53;;
4200;SDS011;2114;50.398;8.814;2022-07-29T20:24:45;2.37;;;2.17;;
4200;SDS011;2114;50.398;8.814;2022-07-29T20:29:46;6.93;;;2.60;;
4200;SDS011;2114;50.398;8.814;2022-07-29T20:34:46;2.43;;;2.23;;
4200;SDS011;2114;50.398;8.814;2022-07-29T20:39:47;4.40;;;2.60;;
4200;SDS011;2114;50.398;8.814;2022-07-29T20:44:48;5.63;;;2.30;;
4200;SDS011;2114;50.398;8.814;2022-07-29T20:49:50;2.33;;;2.17;;
4200;SDS011;2114;50.398;8.814;2022-07-29T20:54:51;3.77;;;2.40;;
4200;SDS011;2114;50.398;8.814;2022-07-29T20:59:51;5.37;;;2.50;;
4200;SDS011;2114;50.398;8.814;2022-07-29T21:04:52;2.87;;;2.67;;
4200;SDS011;2114;50.398;8.814;2022-07-29T21:09:52;4.63;;;2.60;;
4200;SDS011;2114;50.398;8.814;2022-07-29T21:14:53;6.33;;;2.80;;
4200;SDS011;2114;50.398;8.814;2022-07-29T21:19:53;6.13;;;2.30;;
4200;SDS011;2114;50.398;8.814;2022-07-29T21:24:54;4.33;;;3.07;;
4200;SDS011;2114;50.398;8.814;2022-07-29T21:29:54;3.00;;;2.80;;
4200;SDS011;2114;50.398;8.814;2022-07-29T21:34:55;5.37;;;3.10;;
4200;SDS011;2114;50.398;8.814;2022-07-29T21:39:55;3.70;;;3.40;;
4200;SDS011;2114;50.398;8.814;2022-07-29T21:44:56;6.13;;;3.50;;
4200;SDS011;2114;50.398;8.814;2022-07-29T21:49:57;4.83;;;3.37;;
4200;SDS011;2114;50.398;8.814;2022-07-29T21:54:57;3.60;;;3.27;;
4200;SDS011;2114;50.398;8.814;2022-07-29T21:59:58;6.93;;;3.50;;
4200;SDS011;2114;50.398;8.814;2022-07-29T22:04:58;4.97;;;3.07;;
4200;SDS011;2114;50.398;8.814;2022-07-29T22:09:59;3.53;;;2.83;;
4200;SDS011;2114;50.398;8.814;2022-07-29T22:15:00;3.97;;;3.43;;
4200;SDS011;2114;50.398;8.814;2022-07-29T22:20:01;8.60;;;3.10;;
4200;SDS011;2114;50.398;8.814;2022-07-29T22:25:02;5.97;;;3.10;;
4200;SDS011;2114;50.398;8.814;2022-07-29T22:30:04;4.73;;;2.90;;
4200;SDS011;2114;50.398;8.814;2022-07-29T22:35:06;6.93;;;3.80;;
4200;SDS011;2114;50.398;8.814;2022-07-29T22:40:07;4.37;;;3.20;;
4200;SDS011;2114;50.398;8.814;2022-07-29T22:45:08;3.03;;;2.70;;
4200;SDS011;2114;50.398;8.814;2022-07-29T22:50:09;3.07;;;2.87;;
4200;SDS011;2114;50.398;8.814;2022-07-29T22:55:10;5.13;;;3.93;;
4200;SDS011;2114;50.398;8.814;2022-07-29T23:00:11;7.03;;;3.10;;
4200;SDS011;2114;50.398;8.814;2022-07-29T23:05:12;3.20;;;2.90;;
4200;SDS011;2114;50.398;8.814;2022-07-29T23:10:14;3.73;;;3.30;;
4200;SDS011;2114;50.398;8.814;2022-07-29T23:15:15;3.67;;;3.37;;
4200;SDS011;2114;50.398;8.814;2022-07-29T23:20:15;4.10;;;3.00;;
4200;SDS011;2114;50.398;8.814;2022-07-29T23:25:16;3.90;;;3.10;;
4200;SDS011;2114;50.398;8.814;2022-07-29T23:30:17;2.67;;;2.47;;
4200;SDS011;2114;50.398;8.814;2022-07-29T23:35:17;4.90;;;3.33;;
4200;SDS011;2114;50.398;8.814;2022-07-29T23:40:18;3.43;;;3.10;;
4200;SDS011;2114;50.398;8.814;2022-07-29T23:45:19;3.00;;;2.67;;
4200;SDS011;2114;50.398;8.814;2022-07-29T23:50:19;6.07;;;3.80;;
4200;SDS011;2114;50.398;8.814;2022-07-29T23:55:20;4.87;;;2.80;;
